sensor_id;sensor_type;location;lat;lon;timestamp;temperature;humidity
68177;DHT22;56478;50.982;7.032;2023-01-05T00:01:06;12.28;78.39
68177;DHT22;56478;50.982;7.032;2023-01-05T00:03:33;12.30;78.60
68177;DHT22;56478;50.982;7.032;2023-01-05T00:06:03;12.28;78.42
68177;DHT22;56478;50.982;7.032;2023-01-05T00:08:28;12.29;78.41
68177;DHT22;56478;50.982;7.032;2023-01-05T00:10:54;12.26;78.61
68177;DHT22;56478;50.982;7.032;2023-01-05T00:13:38;12.28;78.68
68177;DHT22;56478;50.982;7.032;2023-01-05T00:16:22;12.26;78.54
68177;DHT22;56478;50.982;7.032;2023-01-05T00:19:10;12.26;78.41
68177;DHT22;56478;50.982;7.032;2023-01-05T00:21:55;12.28;78.47
68177;DHT22;56478;50.982;7.032;2023-01-05T00:24:49;12.21;78.65
68177;DHT22;56478;50.982;7.032;2023-01-05T00:27:15;12.18;78.81
68177;DHT22;56478;50.982;7.032;2023-01-05T00:29:41;12.16;79.03
68177;DHT22;56478;50.982;7.032;2023-01-05T00:32:06;12.16;79.07
68177;DHT22;56478;50.982;7.032;2023-01-05T00:34:32;12.11;78.85
68177;DHT22;56478;50.982;7.032;2023-01-05T00:36:57;12.11;79.13
68177;DHT22;56478;50.982;7.032;2023-01-05T00:39:23;12.12;79.25
68177;DHT22;56478;50.982;7.032;2023-01-05T00:41:48;12.15;78.96
68177;DHT22;56478;50.982;7.032;2023-01-05T00:44:14;12.16;79.07
68177;DHT22;56478;50.982;7.032;2023-01-05T00:46:39;12.09;79.35
68177;DHT22;56478;50.982;7.032;2023-01-05T00:49:05;12.05;79.15
68177;DHT22;56478;50.982;7.032;2023-01-05T00:51:30;12.04;79.63
68177;DHT22;56478;50.982;7.032;2023-01-05T00:53:56;12.04;79.58
68177;DHT22;56478;50.982;7.032;2023-01-05T00:56:21;12.06;79.52
68177;DHT22;56478;50.982;7.032;2023-01-05T00:58:47;11.98;79.52
68177;DHT22;56478;50.982;7.032;2023-01-05T01:01:12;11.98;79.85
68177;DHT22;56478;50.982;7.032;2023-01-05T01:03:38;11.97;79.62
68177;DHT22;56478;50.982;7.032;2023-01-05T01:06:04;11.98;79.69
68177;DHT22;56478;50.982;7.032;2023-01-05T01:08:30;11.97;79.77
68177;DHT22;56478;50.982;7.032;2023-01-05T01:10:56;11.98;79.29
68177;DHT22;56478;50.982;7.032;2023-01-05T01:13:24;11.89;79.50
68177;DHT22;56478;50.982;7.032;2023-01-05T01:15:49;11.87;79.74
68177;DHT22;56478;50.982;7.032;2023-01-05T01:18:15;11.88;79.54
68177;DHT22;56478;50.982;7.032;2023-01-05T01:20:40;11.91;79.49
68177;DHT22;56478;50.982;7.032;2023-01-05T01:23:06;11.92;79.48
68177;DHT22;56478;50.982;7.032;2023-01-05T01:25:31;11.87;79.79
68177;DHT22;56478;50.982;7.032;2023-01-05T01:27:57;11.87;79.48
68177;DHT22;56478;50.982;7.032;2023-01-05T01:30:23;11.81;79.65
68177;DHT22;56478;50.982;7.032;2023-01-05T01:32:48;11.87;79.33
68177;DHT22;56478;50.982;7.032;2023-01-05T01:35:14;11.84;79.63
68177;DHT22;56478;50.982;7.032;2023-01-05T01:37:39;11.85;79.74
68177;DHT22;56478;50.982;7.032;2023-01-05T01:40:06;11.84;79.91
68177;DHT22;56478;50.982;7.032;2023-01-05T01:42:32;11.81;79.48
68177;DHT22;56478;50.982;7.032;2023-01-05T01:45:14;11.80;79.92
68177;DHT22;56478;50.982;7.032;2023-01-05T01:48:00;11.87;79.87
68177;DHT22;56478;50.982;7.032;2023-01-05T01:50:31;11.85;79.59
68177;DHT22;56478;50.982;7.032;2023-01-05T01:53:22;11.82;79.76
68177;DHT22;56478;50.982;7.032;2023-01-05T01:55:45;11.85;79.83
68177;DHT22;56478;50.982;7.032;2023-01-05T01:58:15;11.85;79.78
68177;DHT22;56478;50.982;7.032;2023-01-05T02:00:41;11.80;80.09
68177;DHT22;56478;50.982;7.032;2023-01-05T02:03:08;11.82;80.03
68177;DHT22;56478;50.982;7.032;2023-01-05T02:05:34;11.81;80.26
68177;DHT22;56478;50.982;7.032;2023-01-05T02:08:02;11.81;80.24
68177;DHT22;56478;50.982;7.032;2023-01-05T02:22:24;11.81;80.21
68177;DHT22;56478;50.982;7.032;2023-01-05T02:25:07;11.75;80.33
68177;DHT22;56478;50.982;7.032;2023-01-05T02:33:26;11.77;80.44
68177;DHT22;56478;50.982;7.032;2023-01-05T02:36:03;11.73;80.63
68177;DHT22;56478;50.982;7.032;2023-01-05T02:41:52;11.74;80.79
68177;DHT22;56478;50.982;7.032;2023-01-05T02:44:20;11.69;80.48
68177;DHT22;56478;50.982;7.032;2023-01-05T02:46:58;11.66;80.69
68177;DHT22;56478;50.982;7.032;2023-01-05T02:49:24;11.66;80.34
68177;DHT22;56478;50.982;7.032;2023-01-05T02:51:51;11.60;80.78
68177;DHT22;56478;50.982;7.032;2023-01-05T02:54:34;11.59;80.96
68177;DHT22;56478;50.982;7.032;2023-01-05T02:57:12;11.53;81.26
68177;DHT22;56478;50.982;7.032;2023-01-05T02:59:48;11.56;80.92
68177;DHT22;56478;50.982;7.032;2023-01-05T03:02:25;11.52;80.89
68177;DHT22;56478;50.982;7.032;2023-01-05T03:05:00;11.52;81.15
68177;DHT22;56478;50.982;7.032;2023-01-05T03:07:30;11.56;80.84
68177;DHT22;56478;50.982;7.032;2023-01-05T03:09:57;11.54;80.92
68177;DHT22;56478;50.982;7.032;2023-01-05T03:12:43;11.49;81.06
68177;DHT22;56478;50.982;7.032;2023-01-05T03:15:30;11.47;81.14
68177;DHT22;56478;50.982;7.032;2023-01-05T03:17:58;11.50;80.95
68177;DHT22;56478;50.982;7.032;2023-01-05T03:20:27;11.47;81.02
68177;DHT22;56478;50.982;7.032;2023-01-05T03:22:54;11.52;81.06
68177;DHT22;56478;50.982;7.032;2023-01-05T03:25:39;11.50;81.08
68177;DHT22;56478;50.982;7.032;2023-01-05T03:28:26;11.52;81.07
68177;DHT22;56478;50.982;7.032;2023-01-05T03:31:34;11.43;81.37
68177;DHT22;56478;50.982;7.032;2023-01-05T03:37:19;11.50;81.14
68177;DHT22;56478;50.982;7.032;2023-01-05T03:39:46;11.52;80.98
68177;DHT22;56478;50.982;7.032;2023-01-05T03:42:13;11.47;81.01
68177;DHT22;56478;50.982;7.032;2023-01-05T03:44:42;11.54;80.73
68177;DHT22;56478;50.982;7.032;2023-01-05T03:47:08;11.49;80.90
68177;DHT22;56478;50.982;7.032;2023-01-05T03:49:34;11.49;81.15
68177;DHT22;56478;50.982;7.032;2023-01-05T03:52:00;11.53;80.71
68177;DHT22;56478;50.982;7.032;2023-01-05T03:54:26;11.52;81.12
68177;DHT22;56478;50.982;7.032;2023-01-05T03:56:51;11.47;81.54
68177;DHT22;56478;50.982;7.032;2023-01-05T03:59:17;11.43;81.68
68177;DHT22;56478;50.982;7.032;2023-01-05T04:01:43;11.49;81.25
68177;DHT22;56478;50.982;7.032;2023-01-05T04:04:09;11.47;81.34
68177;DHT22;56478;50.982;7.032;2023-01-05T04:06:34;11.53;80.79
68177;DHT22;56478;50.982;7.032;2023-01-05T04:09:00;11.54;81.17
68177;DHT22;56478;50.982;7.032;2023-01-05T04:11:25;11.52;80.95
68177;DHT22;56478;50.982;7.032;2023-01-05T04:13:51;11.52;80.77
68177;DHT22;56478;50.982;7.032;2023-01-05T04:16:16;11.50;80.63
68177;DHT22;56478;50.982;7.032;2023-01-05T04:18:42;11.53;80.77
68177;DHT22;56478;50.982;7.032;2023-01-05T04:21:08;11.52;80.65
68177;DHT22;56478;50.982;7.032;2023-01-05T04:23:34;11.52;80.85
68177;DHT22;56478;50.982;7.032;2023-01-05T04:25:59;11.50;80.70
68177;DHT22;56478;50.982;7.032;2023-01-05T04:28:25;11.59;80.39
68177;DHT22;56478;50.982;7.032;2023-01-05T04:30:53;11.57;81.28
68177;DHT22;56478;50.982;7.032;2023-01-05T04:33:19;11.50;82.01
68177;DHT22;56478;50.982;7.032;2023-01-05T04:35:45;11.56;81.51
68177;DHT22;56478;50.982;7.032;2023-01-05T04:38:12;11.50;82.09
68177;DHT22;56478;50.982;7.032;2023-01-05T04:40:37;11.44;82.06
68177;DHT22;56478;50.982;7.032;2023-01-05T04:43:04;11.46;82.09
68177;DHT22;56478;50.982;7.032;2023-01-05T04:45:29;11.42;81.98
68177;DHT22;56478;50.982;7.032;2023-01-05T04:47:55;11.43;81.43
68177;DHT22;56478;50.982;7.032;2023-01-05T04:50:20;11.46;81.23
68177;DHT22;56478;50.982;7.032;2023-01-05T04:52:46;11.50;80.91
68177;DHT22;56478;50.982;7.032;2023-01-05T04:55:11;11.46;81.70
68177;DHT22;56478;50.982;7.032;2023-01-05T04:57:37;11.50;81.71
68177;DHT22;56478;50.982;7.032;2023-01-05T05:00:03;11.44;82.41
68177;DHT22;56478;50.982;7.032;2023-01-05T05:02:29;11.43;82.23
68177;DHT22;56478;50.982;7.032;2023-01-05T05:04:54;11.40;83.68
68177;DHT22;56478;50.982;7.032;2023-01-05T05:07:21;11.33;84.43
68177;DHT22;56478;50.982;7.032;2023-01-05T05:09:46;11.28;85.07
68177;DHT22;56478;50.982;7.032;2023-01-05T05:12:12;11.15;85.74
68177;DHT22;56478;50.982;7.032;2023-01-05T05:14:38;11.15;86.09
68177;DHT22;56478;50.982;7.032;2023-01-05T05:17:04;11.02;86.63
68177;DHT22;56478;50.982;7.032;2023-01-05T05:19:30;11.07;86.47
68177;DHT22;56478;50.982;7.032;2023-01-05T05:21:55;11.05;86.69
68177;DHT22;56478;50.982;7.032;2023-01-05T05:24:21;11.04;86.34
68177;DHT22;56478;50.982;7.032;2023-01-05T05:26:46;11.01;86.82
68177;DHT22;56478;50.982;7.032;2023-01-05T05:29:12;10.97;87.22
68177;DHT22;56478;50.982;7.032;2023-01-05T05:31:37;10.98;86.65
68177;DHT22;56478;50.982;7.032;2023-01-05T05:34:03;10.98;86.82
68177;DHT22;56478;50.982;7.032;2023-01-05T05:36:28;11.00;86.66
68177;DHT22;56478;50.982;7.032;2023-01-05T05:38:54;10.92;86.74
68177;DHT22;56478;50.982;7.032;2023-01-05T05:41:21;10.94;87.12
68177;DHT22;56478;50.982;7.032;2023-01-05T05:43:46;10.95;86.60
68177;DHT22;56478;50.982;7.032;2023-01-05T05:46:12;10.91;87.04
68177;DHT22;56478;50.982;7.032;2023-01-05T05:48:37;10.94;86.74
68177;DHT22;56478;50.982;7.032;2023-01-05T05:51:03;10.97;86.18
68177;DHT22;56478;50.982;7.032;2023-01-05T05:53:29;10.97;86.32
68177;DHT22;56478;50.982;7.032;2023-01-05T05:55:54;10.98;86.40
68177;DHT22;56478;50.982;7.032;2023-01-05T05:58:20;11.00;86.29
68177;DHT22;56478;50.982;7.032;2023-01-05T06:00:46;11.00;85.79
68177;DHT22;56478;50.982;7.032;2023-01-05T06:03:12;11.07;85.38
68177;DHT22;56478;50.982;7.032;2023-01-05T06:05:37;11.12;85.23
68177;DHT22;56478;50.982;7.032;2023-01-05T06:08:03;11.09;85.07
68177;DHT22;56478;50.982;7.032;2023-01-05T06:10:29;11.20;84.98
68177;DHT22;56478;50.982;7.032;2023-01-05T06:12:55;11.16;84.87
68177;DHT22;56478;50.982;7.032;2023-01-05T06:15:21;11.25;84.66
68177;DHT22;56478;50.982;7.032;2023-01-05T06:17:47;11.25;84.70
68177;DHT22;56478;50.982;7.032;2023-01-05T06:20:13;11.22;84.94
68177;DHT22;56478;50.982;7.032;2023-01-05T06:22:39;11.19;85.09
68177;DHT22;56478;50.982;7.032;2023-01-05T06:25:04;11.19;84.78
68177;DHT22;56478;50.982;7.032;2023-01-05T06:27:30;11.19;84.46
68177;DHT22;56478;50.982;7.032;2023-01-05T06:29:56;11.20;84.53
68177;DHT22;56478;50.982;7.032;2023-01-05T06:32:21;11.26;84.20
68177;DHT22;56478;50.982;7.032;2023-01-05T06:34:47;11.23;84.22
68177;DHT22;56478;50.982;7.032;2023-01-05T06:37:12;11.20;84.19
68177;DHT22;56478;50.982;7.032;2023-01-05T06:39:38;11.23;84.20
68177;DHT22;56478;50.982;7.032;2023-01-05T06:42:03;11.23;84.00
68177;DHT22;56478;50.982;7.032;2023-01-05T06:44:29;11.26;84.03
68177;DHT22;56478;50.982;7.032;2023-01-05T06:46:54;11.25;83.79
68177;DHT22;56478;50.982;7.032;2023-01-05T06:49:20;11.25;83.87
68177;DHT22;56478;50.982;7.032;2023-01-05T06:51:45;11.29;83.49
68177;DHT22;56478;50.982;7.032;2023-01-05T06:54:11;11.23;83.54
68177;DHT22;56478;50.982;7.032;2023-01-05T06:56:37;11.23;83.79
68177;DHT22;56478;50.982;7.032;2023-01-05T06:59:02;11.20;83.70
68177;DHT22;56478;50.982;7.032;2023-01-05T07:01:28;11.28;84.08
68177;DHT22;56478;50.982;7.032;2023-01-05T07:03:53;11.28;83.47
68177;DHT22;56478;50.982;7.032;2023-01-05T07:06:19;11.32;83.40
68177;DHT22;56478;50.982;7.032;2023-01-05T07:08:44;11.28;83.40
68177;DHT22;56478;50.982;7.032;2023-01-05T07:11:10;11.26;83.57
68177;DHT22;56478;50.982;7.032;2023-01-05T07:13:35;11.20;83.86
68177;DHT22;56478;50.982;7.032;2023-01-05T07:16:01;11.22;83.56
68177;DHT22;56478;50.982;7.032;2023-01-05T07:18:26;11.16;83.29
68177;DHT22;56478;50.982;7.032;2023-01-05T07:20:52;11.20;83.49
68177;DHT22;56478;50.982;7.032;2023-01-05T07:23:18;11.16;83.64
68177;DHT22;56478;50.982;7.032;2023-01-05T07:25:44;11.12;83.72
68177;DHT22;56478;50.982;7.032;2023-01-05T07:28:10;11.20;83.00
68177;DHT22;56478;50.982;7.032;2023-01-05T07:30:35;11.19;83.23
68177;DHT22;56478;50.982;7.032;2023-01-05T07:33:01;11.19;83.76
68177;DHT22;56478;50.982;7.032;2023-01-05T07:35:27;11.20;82.93
68177;DHT22;56478;50.982;7.032;2023-01-05T07:37:55;11.25;83.02
68177;DHT22;56478;50.982;7.032;2023-01-05T07:40:21;11.23;82.99
68177;DHT22;56478;50.982;7.032;2023-01-05T07:42:53;11.26;83.11
68177;DHT22;56478;50.982;7.032;2023-01-05T07:45:19;11.23;82.97
68177;DHT22;56478;50.982;7.032;2023-01-05T07:47:45;11.20;83.19
68177;DHT22;56478;50.982;7.032;2023-01-05T07:50:11;11.26;83.13
68177;DHT22;56478;50.982;7.032;2023-01-05T07:52:36;11.28;83.12
68177;DHT22;56478;50.982;7.032;2023-01-05T07:55:04;11.26;83.08
68177;DHT22;56478;50.982;7.032;2023-01-05T07:57:30;11.35;82.45
68177;DHT22;56478;50.982;7.032;2023-01-05T07:59:56;11.28;82.57
68177;DHT22;56478;50.982;7.032;2023-01-05T08:02:21;11.25;82.97
68177;DHT22;56478;50.982;7.032;2023-01-05T08:04:47;11.33;82.62
68177;DHT22;56478;50.982;7.032;2023-01-05T08:07:12;11.29;82.55
68177;DHT22;56478;50.982;7.032;2023-01-05T08:09:40;11.32;82.51
68177;DHT22;56478;50.982;7.032;2023-01-05T08:12:24;11.32;82.70
68177;DHT22;56478;50.982;7.032;2023-01-05T08:14:51;11.30;82.75
68177;DHT22;56478;50.982;7.032;2023-01-05T08:17:17;11.33;82.42
68177;DHT22;56478;50.982;7.032;2023-01-05T08:19:42;11.36;82.61
68177;DHT22;56478;50.982;7.032;2023-01-05T08:22:10;11.36;82.62
68177;DHT22;56478;50.982;7.032;2023-01-05T08:24:36;11.39;82.05
68177;DHT22;56478;50.982;7.032;2023-01-05T08:27:01;11.46;81.92
68177;DHT22;56478;50.982;7.032;2023-01-05T08:29:28;11.43;82.23
68177;DHT22;56478;50.982;7.032;2023-01-05T08:31:54;11.50;81.81
68177;DHT22;56478;50.982;7.032;2023-01-05T08:34:19;11.57;81.53
68177;DHT22;56478;50.982;7.032;2023-01-05T08:36:45;11.47;81.49
68177;DHT22;56478;50.982;7.032;2023-01-05T08:39:11;11.50;81.71
68177;DHT22;56478;50.982;7.032;2023-01-05T08:41:38;11.52;81.98
68177;DHT22;56478;50.982;7.032;2023-01-05T08:44:08;11.54;82.25
68177;DHT22;56478;50.982;7.032;2023-01-05T08:46:35;11.53;82.28
68177;DHT22;56478;50.982;7.032;2023-01-05T08:49:04;11.49;82.19
68177;DHT22;56478;50.982;7.032;2023-01-05T08:51:31;11.47;82.35
68177;DHT22;56478;50.982;7.032;2023-01-05T08:53:57;11.53;82.71
68177;DHT22;56478;50.982;7.032;2023-01-05T08:56:23;11.66;82.05
68177;DHT22;56478;50.982;7.032;2023-01-05T08:58:50;11.67;82.27
68177;DHT22;56478;50.982;7.032;2023-01-05T09:01:18;11.64;82.15
68177;DHT22;56478;50.982;7.032;2023-01-05T09:03:45;11.63;82.20
68177;DHT22;56478;50.982;7.032;2023-01-05T09:06:11;11.67;81.84
68177;DHT22;56478;50.982;7.032;2023-01-05T09:08:38;11.73;81.67
68177;DHT22;56478;50.982;7.032;2023-01-05T09:13:38;11.71;80.98
68177;DHT22;56478;50.982;7.032;2023-01-05T09:16:08;11.73;80.92
68177;DHT22;56478;50.982;7.032;2023-01-05T09:18:35;11.74;80.98
68177;DHT22;56478;50.982;7.032;2023-01-05T09:21:00;11.81;80.62
68177;DHT22;56478;50.982;7.032;2023-01-05T09:23:26;11.80;80.82
68177;DHT22;56478;50.982;7.032;2023-01-05T09:25:54;11.82;80.38
68177;DHT22;56478;50.982;7.032;2023-01-05T09:28:20;11.87;80.27
68177;DHT22;56478;50.982;7.032;2023-01-05T09:30:46;11.95;80.12
68177;DHT22;56478;50.982;7.032;2023-01-05T09:33:11;11.97;79.97
68177;DHT22;56478;50.982;7.032;2023-01-05T09:35:38;11.91;79.65
68177;DHT22;56478;50.982;7.032;2023-01-05T09:38:04;11.91;79.46
68177;DHT22;56478;50.982;7.032;2023-01-05T09:40:34;11.91;80.31
68177;DHT22;56478;50.982;7.032;2023-01-05T09:43:01;11.89;79.99
68177;DHT22;56478;50.982;7.032;2023-01-05T09:45:27;11.95;79.67
68177;DHT22;56478;50.982;7.032;2023-01-05T09:47:54;11.91;79.78
68177;DHT22;56478;50.982;7.032;2023-01-05T09:50:23;11.92;79.80
68177;DHT22;56478;50.982;7.032;2023-01-05T09:52:51;12.04;79.74
68177;DHT22;56478;50.982;7.032;2023-01-05T09:55:19;11.97;79.68
68177;DHT22;56478;50.982;7.032;2023-01-05T09:57:53;11.95;80.08
68177;DHT22;56478;50.982;7.032;2023-01-05T10:00:19;11.98;79.85
68177;DHT22;56478;50.982;7.032;2023-01-05T10:02:51;11.91;79.93
68177;DHT22;56478;50.982;7.032;2023-01-05T10:05:18;11.98;79.56
68177;DHT22;56478;50.982;7.032;2023-01-05T10:08:03;12.01;79.59
68177;DHT22;56478;50.982;7.032;2023-01-05T10:13:01;12.11;79.21
68177;DHT22;56478;50.982;7.032;2023-01-05T10:18:01;12.30;79.29
68177;DHT22;56478;50.982;7.032;2023-01-05T10:28:50;12.40;78.47
68177;DHT22;56478;50.982;7.032;2023-01-05T10:31:33;12.44;78.19
68177;DHT22;56478;50.982;7.032;2023-01-05T10:42:04;12.43;77.90
68177;DHT22;56478;50.982;7.032;2023-01-05T10:47:11;12.49;77.67
68177;DHT22;56478;50.982;7.032;2023-01-05T10:49:39;12.51;77.67
68177;DHT22;56478;50.982;7.032;2023-01-05T10:52:12;12.57;77.51
68177;DHT22;56478;50.982;7.032;2023-01-05T10:54:42;12.54;77.65
68177;DHT22;56478;50.982;7.032;2023-01-05T11:00:00;12.65;77.11
68177;DHT22;56478;50.982;7.032;2023-01-05T11:02:32;12.67;77.02
68177;DHT22;56478;50.982;7.032;2023-01-05T11:05:32;12.63;76.35
68177;DHT22;56478;50.982;7.032;2023-01-05T11:08:05;12.65;76.53
68177;DHT22;56478;50.982;7.032;2023-01-05T11:10:38;12.74;76.60
68177;DHT22;56478;50.982;7.032;2023-01-05T11:13:21;12.80;76.68
68177;DHT22;56478;50.982;7.032;2023-01-05T11:15:54;12.88;76.69
68177;DHT22;56478;50.982;7.032;2023-01-05T11:23:35;12.98;75.97
68177;DHT22;56478;50.982;7.032;2023-01-05T11:26:24;12.74;76.18
68177;DHT22;56478;50.982;7.032;2023-01-05T11:31:21;13.02;75.73
68177;DHT22;56478;50.982;7.032;2023-01-05T11:33:54;13.20;75.05
68177;DHT22;56478;50.982;7.032;2023-01-05T11:36:21;13.15;74.54
68177;DHT22;56478;50.982;7.032;2023-01-05T11:38:51;13.11;74.71
68177;DHT22;56478;50.982;7.032;2023-01-05T11:41:20;12.91;74.93
68177;DHT22;56478;50.982;7.032;2023-01-05T11:43:46;12.94;74.83
68177;DHT22;56478;50.982;7.032;2023-01-05T11:46:13;13.02;75.12
68177;DHT22;56478;50.982;7.032;2023-01-05T11:48:49;12.94;74.78
68177;DHT22;56478;50.982;7.032;2023-01-05T11:51:35;13.02;74.91
68177;DHT22;56478;50.982;7.032;2023-01-05T11:54:01;13.02;75.00
68177;DHT22;56478;50.982;7.032;2023-01-05T11:56:26;13.13;74.59
68177;DHT22;56478;50.982;7.032;2023-01-05T11:58:54;13.13;74.37
68177;DHT22;56478;50.982;7.032;2023-01-05T12:07:29;13.06;74.54
68177;DHT22;56478;50.982;7.032;2023-01-05T12:10:24;13.16;74.30
68177;DHT22;56478;50.982;7.032;2023-01-05T12:13:05;13.09;74.05
68177;DHT22;56478;50.982;7.032;2023-01-05T12:30:42;12.89;75.01
68177;DHT22;56478;50.982;7.032;2023-01-05T12:39:02;13.20;74.02
68177;DHT22;56478;50.982;7.032;2023-01-05T12:47:17;13.05;72.51
68177;DHT22;56478;50.982;7.032;2023-01-05T12:49:59;13.05;73.13
68177;DHT22;56478;50.982;7.032;2023-01-05T12:52:47;13.22;72.19
68177;DHT22;56478;50.982;7.032;2023-01-05T12:57:42;13.39;71.13
68177;DHT22;56478;50.982;7.032;2023-01-05T13:00:17;13.58;70.83
68177;DHT22;56478;50.982;7.032;2023-01-05T13:03:01;13.53;70.97
68177;DHT22;56478;50.982;7.032;2023-01-05T13:05:40;13.57;70.93
68177;DHT22;56478;50.982;7.032;2023-01-05T13:13:22;13.60;69.69
68177;DHT22;56478;50.982;7.032;2023-01-05T13:16:01;13.48;70.58
68177;DHT22;56478;50.982;7.032;2023-01-05T13:18:29;13.46;70.89
68177;DHT22;56478;50.982;7.032;2023-01-05T13:20:59;13.29;71.10
68177;DHT22;56478;50.982;7.032;2023-01-05T13:23:42;13.20;71.40
68177;DHT22;56478;50.982;7.032;2023-01-05T13:26:19;13.24;71.65
68177;DHT22;56478;50.982;7.032;2023-01-05T13:28:47;13.23;71.71
68177;DHT22;56478;50.982;7.032;2023-01-05T13:32:04;13.32;71.88
68177;DHT22;56478;50.982;7.032;2023-01-05T13:55:19;12.84;73.39
68177;DHT22;56478;50.982;7.032;2023-01-05T13:57:46;12.85;73.04
68177;DHT22;56478;50.982;7.032;2023-01-05T14:03:28;12.75;73.60
68177;DHT22;56478;50.982;7.032;2023-01-05T14:05:59;12.81;73.73
68177;DHT22;56478;50.982;7.032;2023-01-05T14:11:13;12.73;73.69
68177;DHT22;56478;50.982;7.032;2023-01-05T14:13:42;12.74;74.08
68177;DHT22;56478;50.982;7.032;2023-01-05T14:34:54;12.63;74.75
68177;DHT22;56478;50.982;7.032;2023-01-05T14:37:35;12.61;74.62
68177;DHT22;56478;50.982;7.032;2023-01-05T14:40:14;12.61;75.09
68177;DHT22;56478;50.982;7.032;2023-01-05T14:42:40;12.61;74.93
68177;DHT22;56478;50.982;7.032;2023-01-05T14:45:27;12.63;74.22
68177;DHT22;56478;50.982;7.032;2023-01-05T14:47:55;12.56;74.78
68177;DHT22;56478;50.982;7.032;2023-01-05T14:53:38;12.49;75.50
68177;DHT22;56478;50.982;7.032;2023-01-05T15:01:44;12.42;75.99
68177;DHT22;56478;50.982;7.032;2023-01-05T15:04:35;12.44;75.72
68177;DHT22;56478;50.982;7.032;2023-01-05T15:07:22;12.40;76.00
68177;DHT22;56478;50.982;7.032;2023-01-05T15:15:41;12.33;75.69
68177;DHT22;56478;50.982;7.032;2023-01-05T15:21:22;12.33;75.39
68177;DHT22;56478;50.982;7.032;2023-01-05T15:32:25;12.22;76.36
68177;DHT22;56478;50.982;7.032;2023-01-05T15:35:16;12.21;76.32
68177;DHT22;56478;50.982;7.032;2023-01-05T15:37:43;12.19;76.79
68177;DHT22;56478;50.982;7.032;2023-01-05T15:42:42;12.14;77.52
68177;DHT22;56478;50.982;7.032;2023-01-05T15:45:18;12.14;77.19
68177;DHT22;56478;50.982;7.032;2023-01-05T15:47:46;12.12;78.33
68177;DHT22;56478;50.982;7.032;2023-01-05T15:50:24;12.16;78.64
68177;DHT22;56478;50.982;7.032;2023-01-05T15:52:56;12.12;78.17
68177;DHT22;56478;50.982;7.032;2023-01-05T15:55:23;12.16;78.38
68177;DHT22;56478;50.982;7.032;2023-01-05T15:58:00;12.22;79.03
68177;DHT22;56478;50.982;7.032;2023-01-05T16:02:53;12.11;79.07
68177;DHT22;56478;50.982;7.032;2023-01-05T16:05:21;12.12;79.47
68177;DHT22;56478;50.982;7.032;2023-01-05T16:08:02;12.08;80.02
68177;DHT22;56478;50.982;7.032;2023-01-05T16:10:50;12.09;80.17
68177;DHT22;56478;50.982;7.032;2023-01-05T16:13:39;12.14;79.25
68177;DHT22;56478;50.982;7.032;2023-01-05T16:16:12;12.14;78.51
68177;DHT22;56478;50.982;7.032;2023-01-05T16:18:42;12.15;79.36
68177;DHT22;56478;50.982;7.032;2023-01-05T16:21:21;12.12;78.94
68177;DHT22;56478;50.982;7.032;2023-01-05T16:23:55;12.04;79.14
68177;DHT22;56478;50.982;7.032;2023-01-05T16:26:22;11.95;79.87
68177;DHT22;56478;50.982;7.032;2023-01-05T16:28:48;11.91;80.12
68177;DHT22;56478;50.982;7.032;2023-01-05T16:31:24;11.87;80.84
68177;DHT22;56478;50.982;7.032;2023-01-05T16:34:18;11.78;81.48
68177;DHT22;56478;50.982;7.032;2023-01-05T16:37:02;11.70;82.58
68177;DHT22;56478;50.982;7.032;2023-01-05T16:39:39;11.70;83.32
68177;DHT22;56478;50.982;7.032;2023-01-05T16:42:25;11.71;84.02
68177;DHT22;56478;50.982;7.032;2023-01-05T16:45:08;11.67;84.89
68177;DHT22;56478;50.982;7.032;2023-01-05T16:47:40;11.59;86.14
68177;DHT22;56478;50.982;7.032;2023-01-05T16:53:04;11.49;87.34
68177;DHT22;56478;50.982;7.032;2023-01-05T16:55:34;11.49;87.69
68177;DHT22;56478;50.982;7.032;2023-01-05T16:58:01;11.42;87.84
68177;DHT22;56478;50.982;7.032;2023-01-05T17:02:57;11.43;88.00
68177;DHT22;56478;50.982;7.032;2023-01-05T17:05:25;11.39;88.01
68177;DHT22;56478;50.982;7.032;2023-01-05T17:08:06;11.43;88.03
68177;DHT22;56478;50.982;7.032;2023-01-05T17:10:34;11.42;88.19
68177;DHT22;56478;50.982;7.032;2023-01-05T17:13:09;11.43;88.02
68177;DHT22;56478;50.982;7.032;2023-01-05T17:15:35;11.44;88.35
68177;DHT22;56478;50.982;7.032;2023-01-05T17:18:16;11.43;87.65
68177;DHT22;56478;50.982;7.032;2023-01-05T17:20:44;11.42;87.46
68177;DHT22;56478;50.982;7.032;2023-01-05T17:23:35;11.46;88.05
68177;DHT22;56478;50.982;7.032;2023-01-05T17:26:08;11.47;87.82
68177;DHT22;56478;50.982;7.032;2023-01-05T17:28:35;11.46;87.71
68177;DHT22;56478;50.982;7.032;2023-01-05T17:31:01;11.42;88.11
68177;DHT22;56478;50.982;7.032;2023-01-05T17:33:27;11.46;87.78
68177;DHT22;56478;50.982;7.032;2023-01-05T17:35:54;11.39;88.17
68177;DHT22;56478;50.982;7.032;2023-01-05T17:38:19;11.40;88.67
68177;DHT22;56478;50.982;7.032;2023-01-05T17:40:46;11.42;88.51
68177;DHT22;56478;50.982;7.032;2023-01-05T17:43:11;11.44;88.69
68177;DHT22;56478;50.982;7.032;2023-01-05T17:45:42;11.42;88.50
68177;DHT22;56478;50.982;7.032;2023-01-05T17:48:11;11.46;88.32
68177;DHT22;56478;50.982;7.032;2023-01-05T17:50:38;11.43;88.36
68177;DHT22;56478;50.982;7.032;2023-01-05T17:53:04;11.43;88.51
68177;DHT22;56478;50.982;7.032;2023-01-05T17:55:30;11.43;88.49
68177;DHT22;56478;50.982;7.032;2023-01-05T17:57:56;11.47;88.16
68177;DHT22;56478;50.982;7.032;2023-01-05T18:00:24;11.46;87.96
68177;DHT22;56478;50.982;7.032;2023-01-05T18:02:51;11.44;88.01
68177;DHT22;56478;50.982;7.032;2023-01-05T18:05:17;11.30;88.94
68177;DHT22;56478;50.982;7.032;2023-01-05T18:07:43;11.46;87.95
68177;DHT22;56478;50.982;7.032;2023-01-05T18:10:17;11.40;88.06
68177;DHT22;56478;50.982;7.032;2023-01-05T18:12:43;11.32;88.47
68177;DHT22;56478;50.982;7.032;2023-01-05T18:15:09;11.26;88.58
68177;DHT22;56478;50.982;7.032;2023-01-05T18:17:35;11.25;88.97
68177;DHT22;56478;50.982;7.032;2023-01-05T18:20:01;11.28;88.91
68177;DHT22;56478;50.982;7.032;2023-01-05T18:22:27;11.20;89.27
68177;DHT22;56478;50.982;7.032;2023-01-05T18:24:52;11.28;88.90
68177;DHT22;56478;50.982;7.032;2023-01-05T18:27:18;11.33;88.71
68177;DHT22;56478;50.982;7.032;2023-01-05T18:29:44;11.40;87.82
68177;DHT22;56478;50.982;7.032;2023-01-05T18:32:10;11.29;88.30
68177;DHT22;56478;50.982;7.032;2023-01-05T18:34:36;11.28;88.42
68177;DHT22;56478;50.982;7.032;2023-01-05T18:37:02;11.25;88.54
68177;DHT22;56478;50.982;7.032;2023-01-05T18:39:28;11.11;89.33
68177;DHT22;56478;50.982;7.032;2023-01-05T18:41:54;11.15;89.44
68177;DHT22;56478;50.982;7.032;2023-01-05T18:44:20;11.16;88.83
68177;DHT22;56478;50.982;7.032;2023-01-05T18:46:46;11.09;89.69
68177;DHT22;56478;50.982;7.032;2023-01-05T18:49:12;11.08;89.42